createdAt,value
2015-07-12T00:00:15.142Z,18.7
2015-07-12T00:00:33.626Z,18.7
2015-07-12T00:00:52.378Z,18.7
2015-07-12T00:01:10.925Z,18.6
2015-07-12T00:01:29.316Z,18.6
2015-07-12T00:01:47.925Z,18.6
2015-07-12T00:02:06.302Z,18.7
2015-07-12T00:02:24.693Z,18.7
2015-07-12T00:02:43.380Z,18.7
2015-07-12T00:03:01.742Z,18.7
2015-07-12T00:03:20.352Z,18.7
2015-07-12T00:03:38.883Z,18.7
2015-07-12T00:03:57.508Z,18.8
2015-07-12T00:04:15.916Z,18.8
2015-07-12T00:04:34.838Z,18.8
2015-07-12T00:04:53.307Z,18.7
2015-07-12T00:05:11.996Z,18.7
2015-07-12T00:05:30.356Z,18.7
2015-07-12T00:05:48.918Z,18.7
2015-07-12T00:06:07.309Z,18.7
2015-07-12T00:06:26.029Z,18.7
2015-07-12T00:06:44.622Z,18.7
2015-07-12T00:07:03.029Z,18.7
2015-07-12T00:07:21.391Z,18.6
2015-07-12T00:07:39.875Z,18.6
2015-07-12T00:07:58.250Z,18.6
2015-07-12T00:08:16.625Z,18.5
2015-07-12T00:08:35.518Z,18.6
2015-07-12T00:08:53.893Z,18.6
2015-07-12T00:09:12.268Z,18.6
2015-07-12T00:09:30.958Z,18.6
2015-07-12T00:09:49.551Z,18.6
2015-07-12T00:10:07.973Z,18.5
2015-07-12T00:10:26.567Z,18.5
2015-07-12T00:10:44.991Z,18.5
2015-07-12T00:11:03.428Z,18.4
2015-07-12T00:11:22.022Z,18.4
2015-07-12T00:11:40.383Z,18.5
2015-07-12T00:11:58.774Z,18.5
2015-07-12T00:12:17.149Z,18.5
2015-07-12T00:12:35.524Z,18.5
2015-07-12T00:12:54.073Z,18.6
2015-07-12T00:13:12.964Z,18.5
2015-07-12T00:13:31.339Z,18.5
2015-07-12T00:13:49.762Z,18.5
2015-07-12T00:14:08.466Z,18.5
2015-07-12T00:14:27.012Z,18.5
2015-07-12T00:14:45.637Z,18.5
2015-07-12T00:15:04.296Z,18.5
2015-07-12T00:15:22.702Z,18.5
2015-07-12T00:15:41.139Z,18.6
2015-07-12T00:15:59.704Z,18.6
2015-07-12T00:16:18.173Z,18.6
2015-07-12T00:16:36.563Z,18.6
2015-07-12T00:16:55.298Z,18.6
2015-07-12T00:17:13.722Z,18.7
2015-07-12T00:17:32.206Z,18.6
2015-07-12T00:17:50.722Z,18.6
2015-07-12T00:18:09.209Z,18.6
2015-07-12T00:18:27.553Z,18.6
2015-07-12T00:18:45.943Z,18.6
2015-07-12T00:19:04.459Z,18.6
2015-07-12T00:19:22.945Z,18.6
2015-07-12T00:19:41.320Z,18.6
2015-07-12T00:19:59.742Z,18.6
2015-07-12T00:20:18.337Z,18.5
2015-07-12T00:20:36.837Z,18.5
2015-07-12T00:20:55.431Z,18.4
2015-07-12T00:21:14.040Z,18.3
2015-07-12T00:21:32.481Z,18.3
2015-07-12T00:21:51.137Z,18.3
2015-07-12T00:22:09.621Z,18.4
2015-07-12T00:22:27.998Z,18.3
2015-07-12T00:22:46.608Z,18.3
2015-07-12T00:23:04.983Z,18.3
2015-07-12T00:23:23.529Z,18.3
2015-07-12T00:23:42.297Z,18.4
2015-07-12T00:24:01.063Z,18.4
2015-07-12T00:24:19.500Z,18.4
2015-07-12T00:24:38.033Z,18.4
2015-07-12T00:24:56.471Z,18.4
2015-07-12T00:25:15.112Z,18.5
2015-07-12T00:25:33.627Z,18.4
2015-07-12T00:25:52.114Z,18.4
2015-07-12T00:26:10.785Z,18.5
2015-07-12T00:26:29.192Z,18.5
2015-07-12T00:26:47.725Z,18.4
2015-07-12T00:27:06.537Z,18.3
2015-07-12T00:27:24.959Z,18.3
2015-07-12T00:27:43.459Z,18.3
2015-07-12T00:28:01.899Z,18.3
2015-07-12T00:28:20.336Z,18.3
2015-07-12T00:28:38.868Z,18.4
2015-07-12T00:28:57.416Z,18.4
2015-07-12T00:29:15.979Z,18.5
2015-07-12T00:29:34.510Z,18.3
2015-07-12T00:29:52.479Z,18.3
2015-07-12T00:30:10.856Z,18.3
2015-07-12T00:30:29.372Z,18.4
2015-07-12T00:30:47.856Z,18.3
2015-07-12T00:31:06.342Z,18.3
2015-07-12T00:31:24.889Z,18.3
2015-07-12T00:31:43.311Z,18.4
2015-07-12T00:32:01.811Z,18.4
2015-07-12T00:32:20.330Z,18.4
2015-07-12T00:32:38.830Z,18.4
2015-07-12T00:32:57.361Z,18.4
2015-07-12T00:33:15.721Z,18.4
2015-07-12T00:33:34.128Z,18.4
2015-07-12T00:33:52.753Z,18.3
2015-07-12T00:34:11.143Z,18.2
2015-07-12T00:34:29.990Z,18.2
2015-07-12T00:34:48.365Z,18.3
2015-07-12T00:35:06.724Z,18.3
2015-07-12T00:35:25.538Z,18.3
2015-07-12T00:35:43.944Z,18.2
2015-07-12T00:36:02.507Z,18.3
2015-07-12T00:36:21.100Z,18.3
2015-07-12T00:36:39.947Z,18.2
2015-07-12T00:36:58.416Z,18.1
2015-07-12T00:37:16.853Z,18
2015-07-12T00:37:35.324Z,18.1
2015-07-12T00:37:53.746Z,18.1
2015-07-12T00:38:12.277Z,18.1
2015-07-12T00:38:30.730Z,18
2015-07-12T00:38:49.248Z,18
2015-07-12T00:39:07.982Z,17.9
2015-07-12T00:39:26.342Z,18
2015-07-12T00:39:44.750Z,18
2015-07-12T00:40:03.266Z,18
2015-07-12T00:40:21.844Z,18
2015-07-12T00:40:40.203Z,18
2015-07-12T00:40:58.799Z,18
2015-07-12T00:41:17.205Z,18
2015-07-12T00:41:35.580Z,18
2015-07-12T00:41:54.238Z,18
2015-07-12T00:42:12.676Z,18
2015-07-12T00:42:31.035Z,18
2015-07-12T00:42:49.598Z,18
2015-07-12T00:43:08.334Z,18
2015-07-12T00:43:26.740Z,18
2015-07-12T00:43:45.334Z,18
2015-07-12T00:44:03.853Z,18
2015-07-12T00:44:22.212Z,18
2015-07-12T00:44:40.775Z,17.9
2015-07-12T00:44:59.431Z,17.9
2015-07-12T00:45:17.792Z,17.9
2015-07-12T00:45:36.370Z,17.9
2015-07-12T00:45:54.730Z,17.9
2015-07-12T00:46:13.107Z,17.9
2015-07-12T00:46:31.544Z,18
2015-07-12T00:46:50.029Z,18
2015-07-12T00:47:08.700Z,18.1
2015-07-12T00:47:27.108Z,18.1
2015-07-12T00:47:45.764Z,18.1
2015-07-12T00:48:04.326Z,18
2015-07-12T00:48:23.033Z,18
2015-07-12T00:48:41.470Z,18
2015-07-12T00:48:59.829Z,18
2015-07-12T00:49:18.298Z,18
2015-07-12T00:49:36.659Z,18
2015-07-12T00:49:55.346Z,18
2015-07-12T00:50:13.752Z,18.1
2015-07-12T00:50:32.162Z,18.1
2015-07-12T00:50:50.630Z,18.1
2015-07-12T00:51:09.021Z,18
2015-07-12T00:51:27.427Z,18
2015-07-12T00:51:45.867Z,17.9
2015-07-12T00:52:04.257Z,17.9
2015-07-12T00:52:22.882Z,18
2015-07-12T00:52:41.337Z,18
2015-07-12T00:52:59.775Z,17.9
2015-07-12T00:53:18.603Z,17.9
2015-07-12T00:53:37.009Z,17.9
2015-07-12T00:53:55.620Z,18
2015-07-12T00:54:13.995Z,18
2015-07-12T00:54:32.370Z,17.9
2015-07-12T00:54:50.763Z,17.9
2015-07-12T00:55:09.138Z,17.9
2015-07-12T00:55:27.607Z,17.9
2015-07-12T00:55:45.982Z,17.9
2015-07-12T00:56:04.359Z,18
2015-07-12T00:56:22.734Z,18
2015-07-12T00:56:41.109Z,17.9
2015-07-12T00:56:59.533Z,17.9
2015-07-12T00:57:17.939Z,17.9
2015-07-12T00:57:36.220Z,17.9
2015-07-12T00:57:54.611Z,18
2015-07-12T00:58:13.004Z,18
2015-07-12T00:58:31.379Z,18
2015-07-12T00:58:49.754Z,17.9
2015-07-12T00:59:08.115Z,17.9
2015-07-12T00:59:26.490Z,17.9
2015-07-12T00:59:44.865Z,17.9
2015-07-12T01:00:03.240Z,17.9
2015-07-12T01:00:21.617Z,17.9
2015-07-12T01:00:40.055Z,17.9
2015-07-12T01:00:58.430Z,17.9
2015-07-12T01:01:16.822Z,17.9
2015-07-12T01:01:35.213Z,17.9
2015-07-12T01:01:52.932Z,17.8
2015-07-12T01:02:11.307Z,17.8
2015-07-12T01:02:29.685Z,17.8
2015-07-12T01:02:48.075Z,17.7
2015-07-12T01:03:06.466Z,17.8
2015-07-12T01:03:24.826Z,17.8
2015-07-12T01:03:43.217Z,17.8
2015-07-12T01:04:01.592Z,17.7
2015-07-12T01:04:19.967Z,17.7
2015-07-12T01:04:38.344Z,17.7
2015-07-12T01:04:56.719Z,17.7
2015-07-12T01:05:15.109Z,17.8
2015-07-12T01:05:33.502Z,17.8
2015-07-12T01:05:51.877Z,17.8
2015-07-12T01:06:10.127Z,17.7
2015-07-12T01:06:28.533Z,17.8
2015-07-12T01:06:46.927Z,17.8
2015-07-12T01:07:05.318Z,17.8
2015-07-12T01:07:23.693Z,17.7
2015-07-12T01:07:42.085Z,17.7
2015-07-12T01:08:00.491Z,17.7
2015-07-12T01:08:18.929Z,17.7
2015-07-12T01:08:37.304Z,17.7
2015-07-12T01:08:55.728Z,17.7
2015-07-12T01:09:14.118Z,17.7
2015-07-12T01:09:32.493Z,17.7
2015-07-12T01:09:50.854Z,17.8
2015-07-12T01:10:08.588Z,17.8
2015-07-12T01:10:26.963Z,17.7
2015-07-12T01:10:45.338Z,17.7
2015-07-12T01:11:03.059Z,17.7
2015-07-12T01:11:21.450Z,17.7
2015-07-12T01:11:39.856Z,17.7
2015-07-12T01:11:58.249Z,17.7
2015-07-12T01:12:16.624Z,17.7
2015-07-12T01:12:35.015Z,17.7
2015-07-12T01:12:53.390Z,17.8
2015-07-12T01:13:11.750Z,17.9
2015-07-12T01:13:30.141Z,17.8
2015-07-12T01:13:48.532Z,17.7
2015-07-12T01:14:07.097Z,17.7
2015-07-12T01:14:25.566Z,17.7
2015-07-12T01:14:44.082Z,17.7
2015-07-12T01:15:02.472Z,17.6
2015-07-12T01:15:20.849Z,17.6
2015-07-12T01:15:39.302Z,17.5
2015-07-12T01:15:57.834Z,17.6
2015-07-12T01:16:16.320Z,17.6
2015-07-12T01:16:35.023Z,17.7
2015-07-12T01:16:53.601Z,17.6
2015-07-12T01:17:12.070Z,17.6
2015-07-12T01:17:30.620Z,17.7
2015-07-12T01:17:49.057Z,17.7
2015-07-12T01:18:07.495Z,17.8
2015-07-12T01:18:25.949Z,17.8
2015-07-12T01:18:44.433Z,17.8
2015-07-12T01:19:02.871Z,17.7
2015-07-12T01:19:21.340Z,17.7
2015-07-12T01:19:39.763Z,17.7
2015-07-12T01:19:58.529Z,17.6
2015-07-12T01:20:17.123Z,17.6
2015-07-12T01:20:35.531Z,17.6
2015-07-12T01:20:53.984Z,17.6
2015-07-12T01:21:12.531Z,17.6
2015-07-12T01:21:30.984Z,17.6
2015-07-12T01:21:49.425Z,17.6
2015-07-12T01:22:08.003Z,17.7
2015-07-12T01:22:26.409Z,17.7
2015-07-12T01:22:45.145Z,17.7
2015-07-12T01:23:03.770Z,17.6
2015-07-12T01:23:22.161Z,17.6
2015-07-12T01:23:40.583Z,17.5
2015-07-12T01:23:59.116Z,17.5
2015-07-12T01:24:17.538Z,17.5
2015-07-12T01:24:36.054Z,17.5
2015-07-12T01:24:54.478Z,17.5
2015-07-12T01:25:13.009Z,17.5
2015-07-12T01:25:31.524Z,17.5
2015-07-12T01:25:50.134Z,17.5
2015-07-12T01:26:08.635Z,17.5
2015-07-12T01:26:27.135Z,17.5
2015-07-12T01:26:45.619Z,17.5
2015-07-12T01:27:04.075Z,17.5
2015-07-12T01:27:22.450Z,17.6
2015-07-12T01:27:41.060Z,17.5
2015-07-12T01:27:59.450Z,17.5
2015-07-12T01:28:17.904Z,17.4
2015-07-12T01:28:36.311Z,17.5
2015-07-12T01:28:54.889Z,17.5
2015-07-12T01:29:12.736Z,17.6
2015-07-12T01:29:31.564Z,17.6
2015-07-12T01:29:50.111Z,17.6
2015-07-12T01:30:08.736Z,17.6
2015-07-12T01:30:27.425Z,17.6
2015-07-12T01:30:45.988Z,17.5
2015-07-12T01:31:04.816Z,17.4
2015-07-12T01:31:23.646Z,17.4
2015-07-12T01:31:42.099Z,17.5
2015-07-12T01:32:00.474Z,17.5
2015-07-12T01:32:19.132Z,17.5
2015-07-12T01:32:37.695Z,17.5
2015-07-12T01:32:56.242Z,17.5
2015-07-12T01:33:14.679Z,17.5
2015-07-12T01:33:33.306Z,17.6
2015-07-12T01:33:51.869Z,17.6
2015-07-12T01:34:10.275Z,17.6
2015-07-12T01:34:28.746Z,17.7
2015-07-12T01:34:47.199Z,17.6
2015-07-12T01:35:05.589Z,17.6
2015-07-12T01:35:24.152Z,17.6
2015-07-12T01:35:42.716Z,17.5
2015-07-12T01:36:01.123Z,17.5
2015-07-12T01:36:19.529Z,17.5
2015-07-12T01:36:37.984Z,17.5
2015-07-12T01:36:56.562Z,17.6
2015-07-12T01:37:15.203Z,17.5
2015-07-12T01:37:33.812Z,17.5
2015-07-12T01:37:52.283Z,17.6
2015-07-12T01:38:11.002Z,17.6
2015-07-12T01:38:29.548Z,17.7
2015-07-12T01:38:47.942Z,17.7
2015-07-12T01:39:06.458Z,17.6
2015-07-12T01:39:24.926Z,17.6
2015-07-12T01:39:43.489Z,17.6
2015-07-12T01:40:01.959Z,17.6
2015-07-12T01:40:20.459Z,17.6
2015-07-12T01:40:38.849Z,17.6
2015-07-12T01:40:57.398Z,17.6
2015-07-12T01:41:15.820Z,17.6
2015-07-12T01:41:35.195Z,17.6
2015-07-12T01:41:53.633Z,17.6
2015-07-12T01:42:12.135Z,17.6
2015-07-12T01:42:30.572Z,17.6
2015-07-12T01:42:48.947Z,17.6
2015-07-12T01:43:07.403Z,17.6
2015-07-12T01:43:25.778Z,17.6
2015-07-12T01:43:44.138Z,17.6
2015-07-12T01:44:01.856Z,17.6
2015-07-12T01:44:20.155Z,17.7
2015-07-12T01:44:38.546Z,17.7
2015-07-12T01:44:56.921Z,17.6
2015-07-12T01:45:15.345Z,17.6
2015-07-12T01:45:34.095Z,17.6
2015-07-12T01:45:52.454Z,17.6
2015-07-12T01:46:11.032Z,17.6
2015-07-12T01:46:29.393Z,17.5
2015-07-12T01:46:47.955Z,17.5
2015-07-12T01:47:06.549Z,17.6
2015-07-12T01:47:25.036Z,17.6
2015-07-12T01:47:43.474Z,17.5
2015-07-12T01:48:02.192Z,17.5
2015-07-12T01:48:20.583Z,17.5
2015-07-12T01:48:39.444Z,17.6
2015-07-12T01:48:57.929Z,17.5
2015-07-12T01:49:16.304Z,17.5
2015-07-12T01:49:34.806Z,17.5
2015-07-12T01:49:53.196Z,17.5
2015-07-12T01:50:11.681Z,17.5
2015-07-12T01:50:30.275Z,17.5
2015-07-12T01:50:48.667Z,17.6
2015-07-12T01:51:07.214Z,17.5
2015-07-12T01:51:25.745Z,17.5
2015-07-12T01:51:44.108Z,17.5
2015-07-12T01:52:02.608Z,17.4
2015-07-12T01:52:21.076Z,17.4
2015-07-12T01:52:39.436Z,17.4
2015-07-12T01:52:57.968Z,17.4
2015-07-12T01:53:16.562Z,17.4
2015-07-12T01:53:34.921Z,17.4
2015-07-12T01:53:53.298Z,17.3
2015-07-12T01:54:11.908Z,17.3
2015-07-12T01:54:30.283Z,17.3
2015-07-12T01:54:48.861Z,17.2
2015-07-12T01:55:07.316Z,17.3
2015-07-12T01:55:25.988Z,17.3
2015-07-12T01:55:44.785Z,17.2
2015-07-12T01:56:03.413Z,17.2
2015-07-12T01:56:21.834Z,17.3
2015-07-12T01:56:40.444Z,17.3
2015-07-12T01:56:58.913Z,17.3
2015-07-12T01:57:17.290Z,17.3
2015-07-12T01:57:35.883Z,17.3
2015-07-12T01:57:54.336Z,17.3
2015-07-12T01:58:12.713Z,17.3
2015-07-12T01:58:31.073Z,17.2
2015-07-12T01:58:49.542Z,17.2
2015-07-12T01:59:07.917Z,17.3
2015-07-12T01:59:26.653Z,17.3
2015-07-12T01:59:45.356Z,17.2
2015-07-12T02:00:03.090Z,17.2
2015-07-12T02:00:21.452Z,17.3
2015-07-12T02:00:39.842Z,17.3
2015-07-12T02:00:58.342Z,17.3
2015-07-12T02:01:17.061Z,17.3
2015-07-12T02:01:35.751Z,17.3
2015-07-12T02:01:54.423Z,17.3
2015-07-12T02:02:12.876Z,17.4
2015-07-12T02:02:31.346Z,17.3
2015-07-12T02:02:49.784Z,17.3
2015-07-12T02:03:08.456Z,17.3
2015-07-12T02:03:27.034Z,17.4
2015-07-12T02:03:45.692Z,17.4
2015-07-12T02:04:04.255Z,17.4
2015-07-12T02:04:22.848Z,17.4
2015-07-12T02:04:41.288Z,17.4
2015-07-12T02:04:59.741Z,17.4
2015-07-12T02:05:18.397Z,17.4
2015-07-12T02:05:36.804Z,17.4
2015-07-12T02:05:55.212Z,17.3
2015-07-12T02:06:13.806Z,17.3
2015-07-12T02:06:32.181Z,17.3
2015-07-12T02:06:50.589Z,17.3
2015-07-12T02:07:09.198Z,17.4
2015-07-12T02:07:27.729Z,17.4
2015-07-12T02:07:46.089Z,17.4
2015-07-12T02:08:04.763Z,17.4
2015-07-12T02:08:23.419Z,17.4
2015-07-12T02:08:42.060Z,17.4
2015-07-12T02:08:59.843Z,17.5
2015-07-12T02:09:18.327Z,17.4
2015-07-12T02:09:36.702Z,17.4
2015-07-12T02:09:55.062Z,17.3
2015-07-12T02:10:13.439Z,17.3
2015-07-12T02:10:31.876Z,17.4
2015-07-12T02:10:50.235Z,17.4
2015-07-12T02:11:08.692Z,17.4
2015-07-12T02:11:27.067Z,17.4
2015-07-12T02:11:45.770Z,17.4
2015-07-12T02:12:04.332Z,17.3
2015-07-12T02:12:22.709Z,17.4
2015-07-12T02:12:41.178Z,17.4
2015-07-12T02:12:59.772Z,17.5
2015-07-12T02:13:18.461Z,17.5
2015-07-12T02:13:36.805Z,17.4
2015-07-12T02:13:55.336Z,17.4
2015-07-12T02:14:13.742Z,17.4
2015-07-12T02:14:32.291Z,17.3
2015-07-12T02:14:50.916Z,17.2
2015-07-12T02:15:09.557Z,17.2
2015-07-12T02:15:28.059Z,17.2
2015-07-12T02:15:46.543Z,17.3
2015-07-12T02:16:04.950Z,17.3
2015-07-12T02:16:23.543Z,17.3
2015-07-12T02:16:42.108Z,17.3
2015-07-12T02:17:00.639Z,17.3
2015-07-12T02:17:19.233Z,17.3
2015-07-12T02:17:37.641Z,17.4
2015-07-12T02:17:56.235Z,17.4
2015-07-12T02:18:14.860Z,17.3
2015-07-12T02:18:33.625Z,17.4
2015-07-12T02:18:52.221Z,17.4
2015-07-12T02:19:10.799Z,17.3
2015-07-12T02:19:29.315Z,17.3
2015-07-12T02:19:47.895Z,17.3
2015-07-12T02:20:06.442Z,17.3
2015-07-12T02:20:24.895Z,17.3
2015-07-12T02:20:43.536Z,17.3
2015-07-12T02:21:01.928Z,17.4
2015-07-12T02:21:20.569Z,17.4
2015-07-12T02:21:38.975Z,17.3
2015-07-12T02:21:57.493Z,17.2
2015-07-12T02:22:15.915Z,17.2
2015-07-12T02:22:34.680Z,17.2
2015-07-12T02:22:53.180Z,17.2
2015-07-12T02:23:11.760Z,17.2
2015-07-12T02:23:30.245Z,17.2
2015-07-12T02:23:48.870Z,17.2
2015-07-12T02:24:07.325Z,17.1
2015-07-12T02:24:25.825Z,17.2
2015-07-12T02:24:44.309Z,17.2
2015-07-12T02:25:02.747Z,17.1
2015-07-12T02:25:21.202Z,17.1
2015-07-12T02:25:39.077Z,17.1
2015-07-12T02:25:57.608Z,17.1
2015-07-12T02:26:16.110Z,17.2
2015-07-12T02:26:36.157Z,17.2
2015-07-12T02:26:54.641Z,17.1
2015-07-12T02:27:13.204Z,17.1
2015-07-12T02:27:31.754Z,17.1
2015-07-12T02:27:50.285Z,17.1
2015-07-12T02:28:08.676Z,17.2
2015-07-12T02:28:27.115Z,17.2
2015-07-12T02:28:45.615Z,17.2
2015-07-12T02:29:04.084Z,17.3
2015-07-12T02:29:22.568Z,17.3
2015-07-12T02:29:41.101Z,17.3
2015-07-12T02:29:59.851Z,17.3
2015-07-12T02:30:18.522Z,17.2
2015-07-12T02:30:36.994Z,17.2
2015-07-12T02:30:55.369Z,17.2
2015-07-12T02:31:13.807Z,17.2
2015-07-12T02:31:32.182Z,17.1
2015-07-12T02:31:50.699Z,17.1
2015-07-12T02:32:09.184Z,17.1
2015-07-12T02:32:27.621Z,17.2
2015-07-12T02:32:46.014Z,17.2
2015-07-12T02:33:04.483Z,17.2
2015-07-12T02:33:22.983Z,17.2
2015-07-12T02:33:41.483Z,17.1
2015-07-12T02:33:59.875Z,17.1
2015-07-12T02:34:18.250Z,17.1
2015-07-12T02:34:36.781Z,17.1
2015-07-12T02:34:55.346Z,17.1
2015-07-12T02:35:13.908Z,17.1
2015-07-12T02:35:32.283Z,17.1
2015-07-12T02:35:50.705Z,17.1
2015-07-12T02:36:09.130Z,17.1
2015-07-12T02:36:27.599Z,17.2
2015-07-12T02:36:46.255Z,17.1
2015-07-12T02:37:04.709Z,17.1
2015-07-12T02:37:23.319Z,17.1
2015-07-12T02:37:41.819Z,17.2
2015-07-12T02:38:00.412Z,17.2
2015-07-12T02:38:19.180Z,17.1
2015-07-12T02:38:37.555Z,17.1
2015-07-12T02:38:56.008Z,17.1
2015-07-12T02:39:13.713Z,17.2
2015-07-12T02:39:32.385Z,17.2
2015-07-12T02:39:50.760Z,17.1
2015-07-12T02:40:09.338Z,17.1
2015-07-12T02:40:27.747Z,17.1
2015-07-12T02:40:46.528Z,17.1
2015-07-12T02:41:04.918Z,17.2
2015-07-12T02:41:23.484Z,17.1
2015-07-12T02:41:41.937Z,17
2015-07-12T02:42:00.359Z,16.9
2015-07-12T02:42:18.859Z,16.9
2015-07-12T02:42:37.502Z,17
2015-07-12T02:42:56.033Z,16.9
2015-07-12T02:43:14.548Z,17
2015-07-12T02:43:32.957Z,17
2015-07-12T02:43:51.472Z,17
2015-07-12T02:44:10.066Z,17.1
2015-07-12T02:44:28.629Z,17.1
2015-07-12T02:44:47.131Z,17
2015-07-12T02:45:05.615Z,17
2015-07-12T02:45:24.084Z,17
2015-07-12T02:45:42.742Z,17
2015-07-12T02:46:01.101Z,17
2015-07-12T02:46:19.539Z,17
2015-07-12T02:46:38.008Z,16.9
2015-07-12T02:46:56.478Z,16.9
2015-07-12T02:47:15.166Z,16.9
2015-07-12T02:47:33.603Z,17
2015-07-12T02:47:52.012Z,17
2015-07-12T02:48:10.574Z,17
2015-07-12T02:48:29.090Z,16.9
2015-07-12T02:48:47.387Z,16.9
2015-07-12T02:49:05.826Z,16.9
2015-07-12T02:49:24.279Z,16.9
2015-07-12T02:49:42.670Z,16.9
2015-07-12T02:50:01.204Z,16.8
2015-07-12T02:50:19.657Z,16.8
2015-07-12T02:50:38.204Z,16.8
2015-07-12T02:50:56.767Z,16.9
2015-07-12T02:51:15.471Z,17
2015-07-12T02:51:33.861Z,17
2015-07-12T02:51:52.299Z,17
2015-07-12T02:52:10.785Z,16.9
2015-07-12T02:52:29.223Z,16.9
2015-07-12T02:52:48.113Z,16.8
2015-07-12T02:53:06.738Z,16.8
2015-07-12T02:53:25.365Z,16.8
2015-07-12T02:53:43.803Z,16.8
2015-07-12T02:54:02.193Z,16.8
2015-07-12T02:54:20.617Z,16.8
2015-07-12T02:54:38.992Z,16.8
2015-07-12T02:54:57.445Z,16.8
2015-07-12T02:55:16.195Z,16.8
2015-07-12T02:55:34.714Z,16.9
2015-07-12T02:55:53.245Z,16.9
2015-07-12T02:56:11.917Z,16.9
2015-07-12T02:56:30.747Z,16.8
2015-07-12T02:56:49.247Z,16.8
2015-07-12T02:57:07.794Z,16.9
2015-07-12T02:57:26.325Z,16.8
2015-07-12T02:57:45.202Z,16.8
2015-07-12T02:58:03.593Z,16.9
2015-07-12T02:58:22.156Z,16.9
2015-07-12T02:58:40.548Z,16.9
2015-07-12T02:58:59.017Z,16.9
2015-07-12T02:59:17.548Z,17
2015-07-12T02:59:36.033Z,17
2015-07-12T02:59:54.535Z,16.9
2015-07-12T03:00:12.956Z,16.9
2015-07-12T03:00:31.456Z,16.8
2015-07-12T03:00:50.052Z,16.8
2015-07-12T03:01:08.708Z,16.8
2015-07-12T03:01:27.115Z,16.9
2015-07-12T03:01:45.537Z,16.9
2015-07-12T03:02:03.992Z,16.9
2015-07-12T03:02:22.648Z,16.9
2015-07-12T03:02:41.210Z,16.9
2015-07-12T03:02:59.791Z,17
2015-07-12T03:03:18.275Z,17
2015-07-12T03:03:36.837Z,16.9
2015-07-12T03:03:55.275Z,16.9
2015-07-12T03:04:13.652Z,16.9
2015-07-12T03:04:32.074Z,16.9
2015-07-12T03:04:50.449Z,16.9
2015-07-12T03:05:09.046Z,16.9
2015-07-12T03:05:27.436Z,16.9
2015-07-12T03:05:46.155Z,16.9
2015-07-12T03:06:04.671Z,16.8
2015-07-12T03:06:23.298Z,16.8
2015-07-12T03:06:41.844Z,16.8
2015-07-12T03:07:00.610Z,16.9
2015-07-12T03:07:19.064Z,16.9
2015-07-12T03:07:37.689Z,16.8
2015-07-12T03:07:56.142Z,16.8
2015-07-12T03:08:14.736Z,16.8
2015-07-12T03:08:33.160Z,16.8
2015-07-12T03:08:50.941Z,16.8
2015-07-12T03:09:09.535Z,16.9
2015-07-12T03:09:27.772Z,16.9
2015-07-12T03:09:46.335Z,16.9
2015-07-12T03:10:04.772Z,16.8
2015-07-12T03:10:23.225Z,16.8
2015-07-12T03:10:41.617Z,16.8
2015-07-12T03:11:00.055Z,16.8
2015-07-12T03:11:18.695Z,16.9
2015-07-12T03:11:37.526Z,16.8
2015-07-12T03:11:56.026Z,16.8
2015-07-12T03:12:14.386Z,16.8
2015-07-12T03:12:32.948Z,16.8
2015-07-12T03:12:51.497Z,16.7
2015-07-12T03:13:09.872Z,16.7
2015-07-12T03:13:28.481Z,16.7
2015-07-12T03:13:47.140Z,16.7
2015-07-12T03:14:05.702Z,16.7
2015-07-12T03:14:24.124Z,16.8
2015-07-12T03:14:42.624Z,16.8
2015-07-12T03:15:01.173Z,16.8
2015-07-12T03:15:19.579Z,16.8
2015-07-12T03:15:38.032Z,16.8
2015-07-12T03:15:56.487Z,16.8
2015-07-12T03:16:14.941Z,16.8
2015-07-12T03:16:33.456Z,16.9
2015-07-12T03:16:52.081Z,16.8
2015-07-12T03:17:10.755Z,16.8
2015-07-12T03:17:29.208Z,16.8
2015-07-12T03:17:47.755Z,16.8
2015-07-12T03:18:06.163Z,16.7
2015-07-12T03:18:24.585Z,16.7
2015-07-12T03:18:42.960Z,16.7
2015-07-12T03:19:01.523Z,16.7
2015-07-12T03:19:20.134Z,16.7
2015-07-12T03:19:38.525Z,16.8
2015-07-12T03:19:56.915Z,16.7
2015-07-12T03:20:15.355Z,16.8
2015-07-12T03:20:33.792Z,16.8
2015-07-12T03:20:52.167Z,16.8
2015-07-12T03:21:10.714Z,16.8
2015-07-12T03:21:29.169Z,16.7
2015-07-12T03:21:47.701Z,16.8
2015-07-12T03:22:06.513Z,16.8
2015-07-12T03:22:24.875Z,16.7
2015-07-12T03:22:43.297Z,16.7
2015-07-12T03:23:01.875Z,16.8
2015-07-12T03:23:20.469Z,16.8
2015-07-12T03:23:39.049Z,16.7
2015-07-12T03:23:57.487Z,16.8
2015-07-12T03:24:15.862Z,16.8
2015-07-12T03:24:34.270Z,16.8
2015-07-12T03:24:52.895Z,16.9
2015-07-12T03:25:11.426Z,16.9
2015-07-12T03:25:29.801Z,16.8
2015-07-12T03:25:48.194Z,16.8
2015-07-12T03:26:06.756Z,16.8
2015-07-12T03:26:25.131Z,16.8
2015-07-12T03:26:43.602Z,16.8
2015-07-12T03:27:02.383Z,16.7
2015-07-12T03:27:21.024Z,16.7
2015-07-12T03:27:39.493Z,16.7
2015-07-12T03:27:58.072Z,16.7
2015-07-12T03:28:16.572Z,16.7
2015-07-12T03:28:35.119Z,16.6
2015-07-12T03:28:53.716Z,16.7
2015-07-12T03:29:12.153Z,16.7
2015-07-12T03:29:30.606Z,16.7
2015-07-12T03:29:49.075Z,16.7
2015-07-12T03:30:07.718Z,16.7
2015-07-12T03:30:26.218Z,16.7
2015-07-12T03:30:44.764Z,16.7
2015-07-12T03:31:03.220Z,16.6
2015-07-12T03:31:21.798Z,16.6
2015-07-12T03:31:40.376Z,16.7
2015-07-12T03:31:59.220Z,16.7
2015-07-12T03:32:17.675Z,16.6
2015-07-12T03:32:36.378Z,16.5
2015-07-12T03:32:55.112Z,16.6
2015-07-12T03:33:13.505Z,16.7
2015-07-12T03:33:32.067Z,16.6
2015-07-12T03:33:50.880Z,16.6
2015-07-12T03:34:09.317Z,16.6
2015-07-12T03:34:27.960Z,16.6
2015-07-12T03:34:46.757Z,16.7
2015-07-12T03:35:05.194Z,16.7
2015-07-12T03:35:23.618Z,16.7
2015-07-12T03:35:42.056Z,16.6
2015-07-12T03:36:00.478Z,16.6
2015-07-12T03:36:18.868Z,16.6
2015-07-12T03:36:37.636Z,16.7
2015-07-12T03:36:56.042Z,16.7
2015-07-12T03:37:14.495Z,16.6
2015-07-12T03:37:33.075Z,16.6
2015-07-12T03:37:51.466Z,16.6
2015-07-12T03:38:09.857Z,16.6
2015-07-12T03:38:28.247Z,16.7
2015-07-12T03:38:47.124Z,16.7
2015-07-12T03:39:05.530Z,16.6
2015-07-12T03:39:24.030Z,16.7
2015-07-12T03:39:42.705Z,16.7
2015-07-12T03:40:01.487Z,16.7
2015-07-12T03:40:20.033Z,16.7
2015-07-12T03:40:38.424Z,16.7
2015-07-12T03:40:56.832Z,16.8
2015-07-12T03:41:15.223Z,16.8
2015-07-12T03:41:33.082Z,16.7
2015-07-12T03:41:51.537Z,16.6
2015-07-12T03:42:09.912Z,16.7
2015-07-12T03:42:28.412Z,16.7
2015-07-12T03:42:46.850Z,16.6
2015-07-12T03:43:05.289Z,16.6
2015-07-12T03:43:23.743Z,16.6
2015-07-12T03:43:42.118Z,16.7
2015-07-12T03:44:00.650Z,16.7
2015-07-12T03:44:19.040Z,16.6
2015-07-12T03:44:37.478Z,16.6
2015-07-12T03:44:56.025Z,16.6
2015-07-12T03:45:14.433Z,16.6
2015-07-12T03:45:32.871Z,16.6
2015-07-12T03:45:51.371Z,16.6
2015-07-12T03:46:09.764Z,16.6
2015-07-12T03:46:28.327Z,16.6
2015-07-12T03:46:46.733Z,16.6
2015-07-12T03:47:05.217Z,16.6
2015-07-12T03:47:23.719Z,16.6
2015-07-12T03:47:41.969Z,16.6
2015-07-12T03:48:00.657Z,16.5
2015-07-12T03:48:19.487Z,16.6
2015-07-12T03:48:37.878Z,16.6
2015-07-12T03:48:56.362Z,16.7
2015-07-12T03:49:14.799Z,16.7
2015-07-12T03:49:33.239Z,16.7
2015-07-12T03:49:52.005Z,16.6
2015-07-12T03:50:10.411Z,16.6
2015-07-12T03:50:29.069Z,16.7
2015-07-12T03:50:47.866Z,16.7
2015-07-12T03:51:06.553Z,16.6
2015-07-12T03:51:24.944Z,16.6
2015-07-12T03:51:43.415Z,16.6
2015-07-12T03:52:01.915Z,16.7
2015-07-12T03:52:20.337Z,16.7
2015-07-12T03:52:38.762Z,16.7
2015-07-12T03:52:57.355Z,16.6
2015-07-12T03:53:15.777Z,16.6
2015-07-12T03:53:34.152Z,16.6
2015-07-12T03:53:52.575Z,16.7
2015-07-12T03:54:10.997Z,16.7
2015-07-12T03:54:29.716Z,16.7
2015-07-12T03:54:48.687Z,16.8
2015-07-12T03:55:07.219Z,16.8
2015-07-12T03:55:25.625Z,16.7
2015-07-12T03:55:44.078Z,16.7
2015-07-12T03:56:02.846Z,16.7
2015-07-12T03:56:21.486Z,16.8
2015-07-12T03:56:40.096Z,16.7
2015-07-12T03:56:58.784Z,16.8
2015-07-12T03:57:17.487Z,16.8
2015-07-12T03:57:36.112Z,16.8
2015-07-12T03:57:54.659Z,16.8
2015-07-12T03:58:13.412Z,16.7
2015-07-12T03:58:31.975Z,16.7
2015-07-12T03:58:50.428Z,16.8
2015-07-12T03:59:09.086Z,16.8
2015-07-12T03:59:27.539Z,16.8
2015-07-12T03:59:46.055Z,16.8
2015-07-12T04:00:04.789Z,16.8
2015-07-12T04:00:23.151Z,16.8
2015-07-12T04:00:41.869Z,16.8
2015-07-12T04:01:00.463Z,16.7
2015-07-12T04:01:19.121Z,16.7
2015-07-12T04:01:37.840Z,16.8
2015-07-12T04:01:56.371Z,16.9
2015-07-12T04:02:15.012Z,16.9
2015-07-12T04:02:33.576Z,16.8
2015-07-12T04:02:52.061Z,16.8
2015-07-12T04:03:10.670Z,16.9
2015-07-12T04:03:29.141Z,16.9
2015-07-12T04:03:47.516Z,16.9
2015-07-12T04:04:05.938Z,16.8
2015-07-12T04:04:24.500Z,16.9
2015-07-12T04:04:43.034Z,16.9
2015-07-12T04:05:01.518Z,17
2015-07-12T04:05:20.190Z,17
2015-07-12T04:05:38.661Z,17
2015-07-12T04:05:57.051Z,17.1
2015-07-12T04:06:15.551Z,17.1
2015-07-12T04:06:33.973Z,17.1
2015-07-12T04:06:52.397Z,17.1
2015-07-12T04:07:11.053Z,17.1
2015-07-12T04:07:29.538Z,17.1